Time;durP1;ratioP1;P1;durP2;ratioP2;P2;SDS_P1;SDS_P2;PMS_P1;PMS_P2;Temp;Humidity;BMP_temperature;BMP_pressure;BME280_temperature;BME280_humidity;BME280_pressure;Samples;Min_cycle;Max_cycle;Signal;HPM_P1;HPM_P2
2022/04/08 00:01:51;;;;;;;4.50;1.20;;;5.00;99.90;;;;;;5118929;27;20047;-86
2022/04/08 00:04:18;;;;;;;9.23;1.52;;;4.90;99.90;;;;;;5114962;27;20423;-88
2022/04/08 00:06:44;;;;;;;7.15;1.30;;;4.90;99.90;;;;;;5120604;27;20448;-86
2022/04/08 00:09:09;;;;;;;3.75;0.70;;;5.00;99.90;;;;;;5114457;27;20126;-86
2022/04/08 00:11:35;;;;;;;3.40;0.70;;;4.80;99.90;;;;;;5100745;27;20041;-86
2022/04/08 00:14:00;;;;;;;3.65;0.73;;;4.80;99.90;;;;;;5126082;27;20066;-87
2022/04/08 00:16:26;;;;;;;7.78;0.98;;;4.70;99.90;;;;;;5103368;27;20046;-86
2022/04/08 00:18:52;;;;;;;5.40;0.80;;;4.70;99.90;;;;;;5109587;28;20539;-87
2022/04/08 00:21:18;;;;;;;5.30;0.75;;;4.70;99.90;;;;;;5112753;27;20507;-86
2022/04/08 00:23:45;;;;;;;3.30;0.75;;;4.70;99.90;;;;;;5111030;27;20042;-86
2022/04/08 00:26:11;;;;;;;3.13;0.65;;;4.70;99.90;;;;;;5135060;27;20400;-86
2022/04/08 00:28:36;;;;;;;2.40;0.60;;;4.60;99.90;;;;;;5112413;27;20031;-85
2022/04/08 00:31:04;;;;;;;1.95;0.50;;;4.40;99.90;;;;;;5112283;27;20206;-85
2022/04/08 00:33:32;;;;;;;2.53;0.77;;;4.30;99.90;;;;;;5134318;27;20046;-86
2022/04/08 00:35:58;;;;;;;3.95;0.60;;;4.20;99.90;;;;;;5127870;27;20033;-85
2022/04/08 00:38:24;;;;;;;4.50;0.70;;;4.10;99.90;;;;;;5105604;27;20039;-85
2022/04/08 00:40:50;;;;;;;3.38;0.85;;;4.10;99.90;;;;;;5108696;27;20026;-86
2022/04/08 00:43:18;;;;;;;5.03;0.80;;;4.00;99.90;;;;;;5117633;27;20393;-85
2022/04/08 00:45:44;;;;;;;6.90;0.90;;;4.00;99.90;;;;;;5121149;27;20445;-87
2022/04/08 00:48:10;;;;;;;3.53;0.88;;;4.00;99.90;;;;;;5125871;27;20085;-86
2022/04/08 00:50:38;;;;;;;5.63;1.45;;;4.00;99.90;;;;;;5137811;27;20070;-86
2022/04/08 00:53:05;;;;;;;5.40;0.98;;;4.00;99.90;;;;;;5130689;27;20050;-86
2022/04/08 00:55:31;;;;;;;7.20;1.20;;;4.00;99.90;;;;;;5118960;27;20038;-86
2022/04/08 00:58:02;;;;;;;10.77;1.23;;;3.90;99.90;;;;;;5118935;27;20530;-86
2022/04/08 01:00:32;;;;;;;6.40;0.93;;;3.90;99.90;;;;;;5121331;27;20424;-86
2022/04/08 01:02:57;;;;;;;7.82;1.25;;;4.00;99.90;;;;;;5120922;27;20344;-86
2022/04/08 01:05:24;;;;;;;3.97;0.88;;;4.00;99.90;;;;;;5120718;27;20054;-86
2022/04/08 01:07:50;;;;;;;6.97;1.10;;;3.90;99.90;;;;;;5120203;27;20030;-85
2022/04/08 01:10:15;;;;;;;3.47;0.95;;;3.90;99.90;;;;;;5119531;27;20035;-87
2022/04/08 01:12:41;;;;;;;7.25;1.20;;;3.80;99.90;;;;;;5120746;27;20042;-86
2022/04/08 01:15:08;;;;;;;4.65;1.02;;;3.80;99.90;;;;;;5115110;27;20034;-86
2022/04/08 01:17:34;;;;;;;4.15;1.33;;;3.70;99.90;;;;;;5131074;27;20087;-86
2022/04/08 01:19:59;;;;;;;6.15;1.30;;;3.60;99.90;;;;;;5118969;27;20117;-85
2022/04/08 01:22:25;;;;;;;7.95;1.25;;;3.50;99.90;;;;;;5120023;27;20031;-85
2022/04/08 01:25:02;;;;;;;5.95;1.05;;;3.40;99.90;;;;;;5135532;27;20512;-86
2022/04/08 01:27:28;;;;;;;9.05;1.60;;;3.50;99.90;;;;;;5137845;27;20495;-86
2022/04/08 01:29:55;;;;;;;8.75;1.63;;;3.60;99.90;;;;;;5120367;27;20039;-86
2022/04/08 01:32:20;;;;;;;7.20;1.20;;;3.50;99.90;;;;;;5127331;27;20049;-86
2022/04/08 01:34:49;;;;;;;5.25;1.10;;;3.50;99.90;;;;;;5100025;27;20038;-86
2022/04/08 01:37:15;;;;;;;7.65;1.33;;;3.60;99.90;;;;;;5134779;27;20091;-86
2022/04/08 01:39:41;;;;;;;6.65;1.15;;;3.60;99.90;;;;;;5101917;27;20031;-86
2022/04/08 01:42:07;;;;;;;6.68;1.20;;;3.50;99.90;;;;;;5100842;27;20156;-86
2022/04/08 01:44:34;;;;;;;7.28;1.60;;;3.50;99.90;;;;;;5123424;27;20031;-86
2022/04/08 01:46:59;;;;;;;6.82;1.45;;;3.50;99.90;;;;;;5108463;27;20091;-85
2022/04/08 01:49:25;;;;;;;5.50;1.15;;;3.50;99.90;;;;;;5111144;27;20043;-86
2022/04/08 01:51:50;;;;;;;9.38;1.38;;;3.50;99.90;;;;;;5133070;27;20042;-86
2022/04/08 01:54:16;;;;;;;7.32;1.30;;;3.50;99.90;;;;;;5122011;27;20043;-86
2022/04/08 01:56:41;;;;;;;7.53;1.70;;;3.50;99.90;;;;;;5099695;27;20067;-86
2022/04/08 01:59:08;;;;;;;7.32;1.20;;;3.50;99.90;;;;;;5126847;27;20480;-85
2022/04/08 02:01:33;;;;;;;8.75;1.33;;;3.50;99.90;;;;;;5119092;27;20047;-86
2022/04/08 02:03:59;;;;;;;8.48;1.42;;;3.50;99.90;;;;;;5115048;27;20039;-87
2022/04/08 02:06:25;;;;;;;11.63;1.70;;;3.50;99.90;;;;;;5116254;27;20476;-86
2022/04/08 02:08:50;;;;;;;7.82;1.33;;;3.50;99.90;;;;;;5122785;27;20134;-86
2022/04/08 02:11:16;;;;;;;11.30;1.75;;;3.50;99.90;;;;;;5135065;27;20037;-86
2022/04/08 02:13:42;;;;;;;10.52;1.85;;;3.50;99.90;;;;;;5107477;27;20409;-86
2022/04/08 02:16:07;;;;;;;8.93;1.83;;;3.50;99.90;;;;;;5116072;27;20097;-86
2022/04/08 02:18:33;;;;;;;9.13;2.05;;;3.50;99.90;;;;;;5125024;27;20046;-86
2022/04/08 02:21:00;;;;;;;8.07;1.67;;;3.50;99.90;;;;;;5129438;27;20083;-86
2022/04/08 02:23:26;;;;;;;8.77;1.88;;;3.50;99.90;;;;;;5135519;27;20156;-86
2022/04/08 02:25:52;;;;;;;10.85;2.75;;;3.50;99.90;;;;;;5119716;27;20045;-85
2022/04/08 02:28:17;;;;;;;7.75;1.42;;;3.60;99.90;;;;;;5117049;27;20039;-86
2022/04/08 02:30:43;;;;;;;12.23;1.80;;;3.70;99.90;;;;;;5111093;27;20077;-87
2022/04/08 02:33:08;;;;;;;9.27;1.35;;;3.60;99.90;;;;;;5130001;27;20031;-87
2022/04/08 02:35:34;;;;;;;11.02;1.40;;;3.60;99.90;;;;;;5104007;27;20034;-86
2022/04/08 02:37:59;;;;;;;7.00;1.42;;;3.50;99.90;;;;;;5115800;27;20054;-86
2022/04/08 02:40:25;;;;;;;3.97;1.17;;;3.40;99.90;;;;;;5108442;27;20035;-86
2022/04/08 02:42:50;;;;;;;7.00;2.00;;;3.30;99.90;;;;;;5103851;27;20153;-87
2022/04/08 02:45:17;;;;;;;6.90;1.67;;;3.30;99.90;;;;;;5102227;27;20039;-85
2022/04/08 02:47:44;;;;;;;9.38;1.40;;;3.30;99.90;;;;;;5130210;27;20091;-86
2022/04/08 02:50:10;;;;;;;10.70;1.25;;;3.30;99.90;;;;;;5126587;27;20035;-86
2022/04/08 02:52:36;;;;;;;6.28;1.20;;;3.30;99.90;;;;;;5109210;27;20039;-86
2022/04/08 02:55:02;;;;;;;6.13;1.55;;;3.30;99.90;;;;;;5130452;27;20083;-86
2022/04/08 02:57:27;;;;;;;9.25;1.60;;;3.40;99.90;;;;;;5108970;27;20042;-86
2022/04/08 02:59:53;;;;;;;7.13;1.40;;;3.50;99.90;;;;;;5118106;27;20415;-86
2022/04/08 03:02:19;;;;;;;8.60;1.73;;;3.50;99.90;;;;;;5135170;27;20530;-85
2022/04/08 03:04:45;;;;;;;5.68;1.30;;;3.40;99.90;;;;;;5126379;27;20067;-86
2022/04/08 03:07:10;;;;;;;8.40;1.52;;;3.40;99.90;;;;;;5098454;27;20087;-85
2022/04/08 03:09:36;;;;;;;8.75;1.88;;;3.40;99.90;;;;;;5131512;27;20041;-85
2022/04/08 03:12:03;;;;;;;8.20;1.27;;;3.40;99.90;;;;;;5129674;27;20043;-85
2022/04/08 03:14:29;;;;;;;4.95;1.45;;;3.40;99.90;;;;;;5105748;27;20041;-85
2022/04/08 03:16:54;;;;;;;8.40;1.50;;;3.30;99.90;;;;;;5125761;27;20039;-85
2022/04/08 03:19:20;;;;;;;13.10;1.90;;;3.40;99.90;;;;;;5117914;27;20408;-86
2022/04/08 03:21:46;;;;;;;9.80;1.65;;;3.40;99.90;;;;;;5112668;27;20475;-86
2022/04/08 03:24:12;;;;;;;9.50;1.83;;;3.40;99.90;;;;;;5117986;27;20035;-86
2022/04/08 03:26:38;;;;;;;10.27;1.52;;;3.40;99.90;;;;;;5133349;27;20070;-86
2022/04/08 03:29:04;;;;;;;8.75;1.80;;;3.40;99.90;;;;;;5108247;27;20047;-86
2022/04/08 03:31:29;;;;;;;10.27;2.28;;;3.40;99.90;;;;;;5114965;27;20404;-85
2022/04/08 03:33:55;;;;;;;13.90;2.40;;;3.40;99.90;;;;;;5098439;27;20110;-85
2022/04/08 03:36:22;;;;;;;6.05;1.45;;;3.50;99.90;;;;;;5097827;27;20118;-85
2022/04/08 03:38:47;;;;;;;6.68;1.65;;;3.50;99.90;;;;;;5102068;27;20547;-86
2022/04/08 03:41:13;;;;;;;11.18;2.03;;;3.60;99.90;;;;;;5130260;27;20077;-85
2022/04/08 03:43:38;;;;;;;7.65;1.25;;;3.60;99.90;;;;;;5116088;27;20619;-86
2022/04/08 03:46:04;;;;;;;8.05;1.70;;;3.60;99.90;;;;;;5131395;27;20442;-85
2022/04/08 03:48:30;;;;;;;8.68;1.52;;;3.60;99.90;;;;;;5118056;27;20042;-85
2022/04/08 03:50:55;;;;;;;10.30;1.65;;;3.50;99.90;;;;;;5125877;27;20035;-85
2022/04/08 03:53:21;;;;;;;8.73;1.55;;;3.50;99.90;;;;;;5123305;27;20098;-85
2022/04/08 03:55:47;;;;;;;7.65;1.60;;;3.60;99.90;;;;;;5121595;27;20046;-84
2022/04/08 03:58:13;;;;;;;3.67;0.77;;;3.80;99.90;;;;;;5130893;27;20062;-84
2022/04/08 04:00:39;;;;;;;5.47;1.70;;;4.00;99.90;;;;;;5121657;27;20610;-84
2022/04/08 04:03:05;;;;;;;4.30;1.20;;;3.80;99.90;;;;;;5097715;27;20046;-85
2022/04/08 04:05:34;;;;;;;2.03;1.02;;;3.70;99.90;;;;;;5114682;27;20484;-84
2022/04/08 04:08:00;;;;;;;1.90;0.90;;;3.60;99.90;;;;;;5114476;27;20054;-84
2022/04/08 04:10:26;;;;;;;2.80;1.00;;;3.50;99.90;;;;;;5120431;27;20075;-84
2022/04/08 04:12:53;;;;;;;3.10;1.10;;;3.40;99.90;;;;;;5108733;27;20042;-85
2022/04/08 04:15:19;;;;;;;6.25;1.77;;;3.40;99.90;;;;;;5122020;27;20411;-85
2022/04/08 04:17:45;;;;;;;3.67;1.25;;;3.30;99.90;;;;;;5104699;27;20492;-85
2022/04/08 04:20:11;;;;;;;2.75;1.15;;;3.30;99.90;;;;;;5116259;27;20031;-85
2022/04/08 04:22:37;;;;;;;6.53;1.40;;;3.20;99.90;;;;;;5120056;27;20121;-85
2022/04/08 04:25:03;;;;;;;3.83;1.20;;;3.10;99.90;;;;;;5134049;27;20114;-85
2022/04/08 04:27:29;;;;;;;4.57;1.35;;;3.10;99.90;;;;;;5112715;27;20154;-85
2022/04/08 04:29:54;;;;;;;3.22;1.10;;;3.00;99.90;;;;;;5129714;27;20062;-85
2022/04/08 04:32:20;;;;;;;3.97;1.42;;;3.00;99.90;;;;;;5100302;28;20043;-86
2022/04/08 04:34:45;;;;;;;4.47;1.30;;;2.90;99.90;;;;;;5103541;27;20062;-85
2022/04/08 04:37:11;;;;;;;3.72;1.10;;;2.90;99.90;;;;;;5128363;27;20047;-84
2022/04/08 04:39:37;;;;;;;2.25;1.10;;;2.80;99.90;;;;;;5114581;27;20431;-85
2022/04/08 04:42:04;;;;;;;3.05;1.20;;;2.80;99.90;;;;;;5124780;27;20377;-85
2022/04/08 04:44:29;;;;;;;3.70;1.15;;;2.90;99.90;;;;;;5133918;27;20035;-84
2022/04/08 04:46:55;;;;;;;5.70;1.40;;;3.00;99.90;;;;;;5109248;27;20031;-85
2022/04/08 04:49:22;;;;;;;3.22;1.20;;;3.10;99.90;;;;;;5108322;28;20483;-85
2022/04/08 04:51:49;;;;;;;4.97;1.33;;;3.10;99.90;;;;;;5099909;28;20064;-85
2022/04/08 04:54:15;;;;;;;5.40;1.25;;;3.20;99.90;;;;;;5104840;28;20050;-85
2022/04/08 04:56:40;;;;;;;4.30;1.30;;;3.20;99.90;;;;;;5114513;28;20035;-86
2022/04/08 04:59:06;;;;;;;2.22;1.23;;;3.20;99.90;;;;;;5114993;27;20030;-85
2022/04/08 05:01:31;;;;;;;4.50;1.20;;;3.20;99.90;;;;;;5109989;27;20058;-85
2022/04/08 05:03:57;;;;;;;4.82;1.80;;;3.20;99.90;;;;;;5123599;27;20078;-85
2022/04/08 05:06:22;;;;;;;6.78;1.50;;;3.30;99.90;;;;;;5129689;27;20195;-85
2022/04/08 05:08:48;;;;;;;5.57;1.20;;;3.30;99.90;;;;;;5098202;27;20066;-86
2022/04/08 05:11:15;;;;;;;3.90;1.23;;;3.30;99.90;;;;;;5111196;27;20064;-85
2022/04/08 05:13:41;;;;;;;3.47;1.15;;;3.30;99.90;;;;;;5116433;27;20588;-87
2022/04/08 05:16:07;;;;;;;3.90;1.20;;;3.30;99.90;;;;;;5104944;28;20122;-86
2022/04/08 05:18:33;;;;;;;2.08;1.10;;;3.30;99.90;;;;;;5122782;27;20035;-86
2022/04/08 05:20:58;;;;;;;3.50;1.13;;;3.30;99.90;;;;;;5124141;27;20031;-85
2022/04/08 05:23:28;;;;;;;3.47;1.30;;;3.30;99.90;;;;;;5131162;27;20107;-85
2022/04/08 05:25:54;;;;;;;3.28;1.20;;;3.40;99.90;;;;;;5129418;27;20140;-86
2022/04/08 05:28:20;;;;;;;4.25;1.20;;;3.50;99.90;;;;;;5127155;27;20130;-86
2022/04/08 05:30:46;;;;;;;3.97;1.20;;;3.40;99.90;;;;;;5128257;27;20038;-85
2022/04/08 05:33:11;;;;;;;3.63;1.40;;;3.40;99.90;;;;;;5110996;27;20031;-86
2022/04/08 05:35:37;;;;;;;5.07;1.60;;;3.40;99.90;;;;;;5116987;27;20457;-86
2022/04/08 05:38:02;;;;;;;3.22;1.20;;;3.50;99.90;;;;;;5133510;27;20035;-86
2022/04/08 05:40:28;;;;;;;4.82;1.80;;;3.50;99.90;;;;;;5115094;27;20039;-86
2022/04/08 05:42:53;;;;;;;5.75;1.65;;;3.50;99.90;;;;;;5108014;27;20046;-86
2022/04/08 05:45:21;;;;;;;4.55;1.83;;;3.60;99.90;;;;;;5118027;27;20083;-87
2022/04/08 05:47:47;;;;;;;4.43;1.30;;;3.60;99.90;;;;;;5133426;27;20031;-86
2022/04/08 05:50:14;;;;;;;4.90;1.58;;;3.60;99.90;;;;;;5104231;27;20121;-85
2022/04/08 05:52:40;;;;;;;2.88;1.23;;;3.60;99.90;;;;;;5133870;27;20045;-86
2022/04/08 05:55:06;;;;;;;2.95;1.55;;;3.70;99.90;;;;;;5103674;27;20031;-86
2022/04/08 05:57:36;;;;;;;3.28;1.27;;;3.70;99.90;;;;;;5113854;27;20171;-86
2022/04/08 06:00:03;;;;;;;3.08;1.40;;;3.60;99.90;;;;;;5106140;27;20038;-86
2022/04/08 06:02:28;;;;;;;6.80;1.60;;;3.60;99.90;;;;;;5117170;27;20046;-86
2022/04/08 06:04:54;;;;;;;3.30;1.58;;;3.60;99.90;;;;;;5104341;27;20042;-86
2022/04/08 06:07:23;;;;;;;6.25;2.03;;;3.60;99.90;;;;;;5135953;27;20080;-86
2022/04/08 06:09:48;;;;;;;9.82;2.05;;;3.60;99.90;;;;;;5115542;27;20043;-86
2022/04/08 06:12:14;;;;;;;3.75;1.60;;;3.70;99.90;;;;;;5120065;27;20042;-86
2022/04/08 06:14:39;;;;;;;7.47;1.58;;;3.70;99.90;;;;;;5116213;27;20042;-86
2022/04/08 06:17:05;;;;;;;3.88;1.40;;;3.80;99.90;;;;;;5124731;27;20039;-87
2022/04/08 06:19:31;;;;;;;7.18;1.58;;;3.90;99.90;;;;;;5100714;27;20035;-86
2022/04/08 06:21:56;;;;;;;4.60;1.80;;;3.90;99.90;;;;;;5116064;27;20034;-85
2022/04/08 06:24:22;;;;;;;5.00;1.90;;;4.00;99.90;;;;;;5136830;27;20408;-86
2022/04/08 06:26:47;;;;;;;7.03;1.58;;;4.00;99.90;;;;;;5131816;27;20034;-86
2022/04/08 06:29:13;;;;;;;5.25;2.00;;;4.10;99.90;;;;;;5130730;27;20043;-86
2022/04/08 06:31:38;;;;;;;3.95;1.65;;;4.20;99.90;;;;;;5099290;27;20042;-86
2022/04/08 06:34:04;;;;;;;6.45;1.90;;;4.20;99.90;;;;;;5118814;27;20511;-86
2022/04/08 06:36:29;;;;;;;6.22;1.73;;;4.30;99.90;;;;;;5126025;27;20042;-86
2022/04/08 06:38:55;;;;;;;4.90;1.65;;;4.40;99.90;;;;;;5124311;27;20035;-86
2022/04/08 06:41:21;;;;;;;9.52;2.63;;;4.40;99.90;;;;;;5115526;27;20066;-86
2022/04/08 06:43:47;;;;;;;9.00;1.67;;;4.40;99.90;;;;;;5112753;27;20099;-86
2022/04/08 06:46:13;;;;;;;6.38;1.77;;;4.50;99.90;;;;;;5135821;27;20050;-86
2022/04/08 06:48:38;;;;;;;4.93;1.55;;;4.70;99.90;;;;;;5102650;27;20045;-86
2022/04/08 06:51:04;;;;;;;7.85;1.80;;;4.70;99.90;;;;;;5112738;27;20035;-85
2022/04/08 06:53:31;;;;;;;3.33;1.60;;;4.70;99.90;;;;;;5127658;27;20091;-86
2022/04/08 06:55:56;;;;;;;6.35;1.90;;;4.80;99.90;;;;;;5133205;27;20110;-85
2022/04/08 06:58:26;;;;;;;5.50;2.17;;;4.90;99.90;;;;;;5115715;27;20127;-86
2022/04/08 07:00:52;;;;;;;3.50;1.50;;;5.00;99.90;;;;;;5098449;27;20114;-87
2022/04/08 07:03:18;;;;;;;9.13;1.90;;;5.00;99.90;;;;;;5117626;27;20038;-86
2022/04/08 07:05:43;;;;;;;6.82;1.90;;;5.10;99.90;;;;;;5125994;27;20038;-86
2022/04/08 07:08:09;;;;;;;5.30;1.73;;;5.20;99.90;;;;;;5109988;27;20035;-86
2022/04/08 07:10:34;;;;;;;8.88;1.92;;;5.30;99.90;;;;;;5105311;27;20034;-86
2022/04/08 07:13:00;;;;;;;6.57;1.90;;;5.40;99.90;;;;;;5124041;27;20045;-86
2022/04/08 07:15:25;;;;;;;7.35;2.30;;;5.60;99.90;;;;;;5117470;27;20070;-86
2022/04/08 07:17:51;;;;;;;6.35;2.28;;;5.60;99.90;;;;;;5118012;27;20043;-86
2022/04/08 07:20:17;;;;;;;5.85;2.00;;;5.70;99.90;;;;;;5115826;27;20092;-87
2022/04/08 07:22:44;;;;;;;5.75;2.00;;;5.70;99.90;;;;;;5134868;27;20035;-87
2022/04/08 07:25:10;;;;;;;6.43;1.80;;;5.70;99.90;;;;;;5130293;27;20067;-87
2022/04/08 07:27:50;;;;;;;6.78;1.98;;;5.80;99.90;;;;;;5134768;27;20030;-87
2022/04/08 07:30:17;;;;;;;6.70;1.58;;;6.00;99.90;;;;;;5107168;27;20042;-87
2022/04/08 07:32:44;;;;;;;4.15;1.70;;;6.10;99.90;;;;;;5131889;27;20583;-86
2022/04/08 07:35:10;;;;;;;9.20;1.98;;;6.30;99.90;;;;;;5118616;27;20548;-84
2022/04/08 07:37:36;;;;;;;5.88;1.85;;;6.30;99.90;;;;;;5116677;27;20713;-86
2022/04/08 07:40:06;;;;;;;2.90;1.67;;;6.40;99.90;;;;;;5129251;27;20210;-86
2022/04/08 07:42:32;;;;;;;7.18;1.80;;;6.40;99.90;;;;;;5129157;27;20034;-88
2022/04/08 07:44:58;;;;;;;6.22;1.80;;;6.30;99.90;;;;;;5120476;27;20088;-87
2022/04/08 07:47:27;;;;;;;5.10;1.80;;;6.20;99.90;;;;;;5134322;27;20050;-87
2022/04/08 07:49:59;;;;;;;7.22;1.60;;;6.10;99.90;;;;;;5113960;27;20758;-88
2022/04/08 07:52:26;;;;;;;5.97;1.90;;;6.20;99.90;;;;;;5112945;27;20129;-86
2022/04/08 07:54:53;;;;;;;4.07;1.52;;;6.20;99.90;;;;;;5117136;27;20043;-87
2022/04/08 07:57:18;;;;;;;4.60;1.58;;;6.40;99.90;;;;;;5116017;27;20045;-85
2022/04/08 07:59:44;;;;;;;10.05;1.90;;;6.50;99.90;;;;;;5122762;27;20031;-86
2022/04/08 08:02:10;;;;;;;7.43;1.75;;;6.50;99.90;;;;;;5113841;27;20037;-86
2022/04/08 08:04:36;;;;;;;9.02;1.50;;;6.40;99.90;;;;;;5107830;27;20088;-86
2022/04/08 08:07:02;;;;;;;7.63;1.60;;;6.30;99.90;;;;;;5130224;27;20119;-86
2022/04/08 08:09:27;;;;;;;7.70;1.65;;;6.50;99.90;;;;;;5134174;27;20076;-86
2022/04/08 08:11:53;;;;;;;8.23;1.80;;;6.90;99.90;;;;;;5132709;27;20514;-87
2022/04/08 08:14:18;;;;;;;8.02;1.60;;;6.90;99.90;;;;;;5133451;27;20042;-86
2022/04/08 08:16:44;;;;;;;13.05;2.20;;;7.10;99.90;;;;;;5117008;27;20030;-86
2022/04/08 08:19:09;;;;;;;6.50;1.65;;;7.10;99.90;;;;;;5116592;27;20377;-86
2022/04/08 08:21:35;;;;;;;6.70;1.60;;;7.20;99.90;;;;;;5116776;27;20404;-87
2022/04/08 08:24:00;;;;;;;7.32;1.75;;;7.20;99.90;;;;;;5104010;27;20492;-86
2022/04/08 08:26:26;;;;;;;4.50;1.52;;;7.20;99.90;;;;;;5134859;27;20495;-87
2022/04/08 08:28:53;;;;;;;5.15;1.55;;;7.10;99.90;;;;;;5129243;27;20077;-87
2022/04/08 08:31:18;;;;;;;12.13;1.98;;;7.20;99.90;;;;;;5115004;27;20043;-87
2022/04/08 08:33:44;;;;;;;6.03;1.42;;;7.40;99.90;;;;;;5114136;28;20491;-87
2022/04/08 08:36:09;;;;;;;8.20;1.50;;;7.40;99.90;;;;;;5098789;27;20057;-86
2022/04/08 08:38:35;;;;;;;5.78;1.67;;;7.40;99.90;;;;;;5123408;27;20512;-86
2022/04/08 08:41:02;;;;;;;6.32;1.50;;;7.30;99.90;;;;;;5108703;27;20070;-86
2022/04/08 08:43:27;;;;;;;7.72;1.42;;;7.30;99.90;;;;;;5099955;27;20080;-86
2022/04/08 08:45:56;;;;;;;5.30;1.42;;;7.40;99.90;;;;;;5122048;28;20039;-86
2022/04/08 08:48:22;;;;;;;5.40;1.10;;;7.30;99.90;;;;;;5130048;27;20035;-87
2022/04/08 08:50:50;;;;;;;5.30;1.10;;;7.20;99.90;;;;;;5115372;27;20671;-86
2022/04/08 08:53:19;;;;;;;5.22;1.38;;;7.20;99.90;;;;;;5098042;27;20492;-87
2022/04/08 08:55:48;;;;;;;6.47;1.33;;;7.10;99.90;;;;;;5100343;28;20070;-87
2022/04/08 08:58:14;;;;;;;5.93;1.20;;;7.10;99.90;;;;;;5109881;27;20395;-87
2022/04/08 09:00:40;;;;;;;7.65;1.58;;;7.10;99.90;;;;;;5118862;27;20035;-84
2022/04/08 09:03:05;;;;;;;4.55;1.25;;;7.30;99.90;;;;;;5122115;27;20468;-85
2022/04/08 09:05:42;;;;;;;7.55;1.33;;;7.80;99.90;;;;;;5113299;27;20039;-82
2022/04/08 09:08:09;;;;;;;5.50;1.20;;;8.00;99.90;;;;;;5123329;27;20030;-86
2022/04/08 09:10:36;;;;;;;5.05;1.10;;;8.00;99.90;;;;;;5110234;27;20038;-85
2022/04/08 09:13:05;;;;;;;3.50;0.88;;;7.90;99.90;;;;;;5109179;27;20042;-86
2022/04/08 09:15:33;;;;;;;5.65;1.60;;;8.00;99.90;;;;;;5125547;27;20042;-85
2022/04/08 09:18:13;;;;;;;3.17;1.33;;;7.90;99.90;;;;;;5135114;27;20043;-87
2022/04/08 09:20:48;;;;;;;4.35;0.95;;;8.10;99.90;;;;;;5105398;27;20400;-87
2022/04/08 09:23:16;;;;;;;4.90;1.13;;;8.60;99.90;;;;;;5113940;27;20039;-86
2022/04/08 09:25:42;;;;;;;4.20;1.20;;;8.70;99.90;;;;;;5106631;27;20043;-86
2022/04/08 09:28:13;;;;;;;4.47;1.25;;;8.90;99.90;;;;;;5118256;27;20495;-87
2022/04/08 09:30:40;;;;;;;5.35;1.10;;;9.10;99.90;;;;;;5117610;27;20133;-87
2022/04/08 09:33:13;;;;;;;4.78;1.10;;;9.10;99.90;;;;;;5117804;27;20661;-86
2022/04/08 09:35:40;;;;;;;4.53;1.08;;;8.90;99.90;;;;;;5117275;27;20050;-86
2022/04/08 09:38:05;;;;;;;4.93;1.50;;;8.00;99.90;;;;;;5100179;27;20046;-86
2022/04/08 09:40:39;;;;;;;5.35;1.05;;;7.30;99.90;;;;;;5117379;27;20481;-86
2022/04/08 09:43:05;;;;;;;6.32;1.00;;;6.80;99.90;;;;;;5117085;27;20058;-85
2022/04/08 09:45:31;;;;;;;3.47;1.30;;;6.40;99.90;;;;;;5116752;27;20043;-86
2022/04/08 09:47:59;;;;;;;3.88;1.17;;;6.10;99.90;;;;;;5099931;27;20188;-86
2022/04/08 09:50:24;;;;;;;3.55;1.20;;;6.00;99.90;;;;;;5099865;27;20139;-86
2022/04/08 09:52:50;;;;;;;6.93;1.30;;;6.10;99.90;;;;;;5115687;27;20079;-86
2022/04/08 09:55:17;;;;;;;3.63;1.17;;;6.10;99.90;;;;;;5115486;27;20050;-86
2022/04/08 09:57:46;;;;;;;7.93;1.33;;;6.30;99.90;;;;;;5116754;27;20043;-85
2022/04/08 10:00:12;;;;;;;3.42;1.40;;;6.50;99.90;;;;;;5117168;27;20407;-86
2022/04/08 10:02:44;;;;;;;5.00;1.40;;;6.80;99.90;;;;;;5099707;27;20027;-86
2022/04/08 10:05:10;;;;;;;4.88;1.67;;;6.90;99.90;;;;;;5099442;27;20079;-86
2022/04/08 10:07:37;;;;;;;3.63;1.50;;;7.00;99.90;;;;;;5116559;27;20043;-86
2022/04/08 10:10:13;;;;;;;3.10;1.23;;;7.40;99.90;;;;;;5098419;27;20415;-86
2022/04/08 10:13:03;;;;;;;7.03;1.80;;;7.90;99.90;;;;;;5099600;27;20039;-87
2022/04/08 10:15:59;;;;;;;3.17;0.77;;;8.30;99.90;;;;;;5099221;27;20087;-87
2022/04/08 10:18:33;;;;;;;4.90;1.40;;;8.30;99.90;;;;;;5099148;27;20070;-88
2022/04/08 10:20:59;;;;;;;;;;;8.30;99.90;;;;;;5098943;27;20039;-86
2022/04/08 10:23:55;;;;;;;2.58;0.90;;;8.00;99.90;;;;;;5115463;27;19921;-87
2022/04/08 10:26:26;;;;;;;4.35;1.27;;;7.70;99.90;;;;;;5116268;27;20114;-86
2022/04/08 10:28:54;;;;;;;5.45;1.17;;;7.60;99.90;;;;;;5115413;27;20125;-86
2022/04/08 10:31:23;;;;;;;4.05;1.20;;;7.80;99.90;;;;;;5098732;27;20043;-86
2022/04/08 10:33:56;;;;;;;6.07;1.35;;;8.20;99.90;;;;;;5098873;27;20042;-86
2022/04/08 10:36:37;;;;;;;4.53;0.95;;;8.60;99.90;;;;;;5098685;27;20039;-86
2022/04/08 10:39:16;;;;;;;8.45;1.48;;;8.70;99.90;;;;;;5098704;27;20540;-86
2022/04/08 10:41:58;;;;;;;5.95;1.98;;;8.80;99.90;;;;;;5116344;27;20035;-87
2022/04/08 10:44:35;;;;;;;3.53;1.30;;;8.60;99.90;;;;;;5115692;27;20027;-86
2022/04/08 10:47:10;;;;;;;8.48;1.60;;;8.60;99.90;;;;;;5099179;27;20126;-86
2022/04/08 10:49:48;;;;;;;5.03;1.25;;;8.60;99.90;;;;;;5115579;27;20045;-86
2022/04/08 10:52:21;;;;;;;4.57;1.00;;;8.50;99.90;;;;;;5115843;27;20046;-86
2022/04/08 10:54:48;;;;;;;4.70;1.15;;;8.00;99.90;;;;;;5115335;27;20438;-87
2022/04/08 10:57:13;;;;;;;5.75;0.90;;;7.60;99.90;;;;;;5098979;27;20039;-86
2022/04/08 10:59:40;;;;;;;3.00;1.20;;;7.50;99.90;;;;;;5115634;27;20084;-86
2022/04/08 11:02:12;;;;;;;4.95;1.10;;;7.30;99.90;;;;;;5098477;27;20488;-86
2022/04/08 11:04:38;;;;;;;5.95;1.70;;;7.30;99.90;;;;;;5115613;27;20404;-86
2022/04/08 11:07:07;;;;;;;5.97;1.20;;;7.30;99.90;;;;;;5115419;27;20042;-86
2022/04/08 11:09:33;;;;;;;5.75;1.45;;;7.30;99.90;;;;;;5115325;27;20102;-85
2022/04/08 11:12:00;;;;;;;6.43;1.42;;;7.30;99.90;;;;;;5098403;27;20043;-86
2022/04/08 11:14:29;;;;;;;5.30;1.13;;;7.40;99.90;;;;;;5098367;27;20039;-86
2022/04/08 11:16:54;;;;;;;4.82;1.35;;;7.50;99.90;;;;;;5115414;27;20399;-86
2022/04/08 11:19:21;;;;;;;8.30;1.23;;;7.80;99.90;;;;;;5115704;27;20035;-86
2022/04/08 11:21:48;;;;;;;6.13;1.17;;;8.00;99.90;;;;;;5097783;27;20120;-86
2022/04/08 11:24:15;;;;;;;3.40;0.80;;;8.10;99.90;;;;;;5098053;27;20035;-86
2022/04/08 11:26:49;;;;;;;5.55;1.00;;;8.00;99.90;;;;;;5115136;27;20045;-87
2022/04/08 11:29:23;;;;;;;2.33;0.95;;;7.90;99.90;;;;;;5098150;27;20080;-86
2022/04/08 11:32:05;;;;;;;4.80;1.00;;;7.80;99.90;;;;;;5098076;27;20035;-86
2022/04/08 11:34:31;;;;;;;4.03;1.17;;;7.90;99.90;;;;;;5097931;27;20043;-86
2022/04/08 11:36:57;;;;;;;6.22;1.30;;;7.90;99.90;;;;;;5114707;27;20038;-86
2022/04/08 11:39:23;;;;;;;5.25;0.90;;;8.00;99.90;;;;;;5098049;27;20043;-86
2022/04/08 11:41:53;;;;;;;5.78;1.20;;;8.10;99.90;;;;;;5114870;27;20073;-87
2022/04/08 11:44:20;;;;;;;5.07;1.20;;;8.30;99.90;;;;;;5114937;27;20377;-86
2022/04/08 11:46:45;;;;;;;4.68;1.20;;;8.50;99.90;;;;;;5097860;27;20502;-86
2022/04/08 11:49:12;;;;;;;2.97;1.00;;;8.70;99.90;;;;;;5097884;27;20115;-86
2022/04/08 11:51:38;;;;;;;6.63;1.27;;;8.90;99.90;;;;;;5097769;27;20027;-87
2022/04/08 11:54:04;;;;;;;6.88;1.30;;;9.20;99.90;;;;;;5097522;27;20039;-87
2022/04/08 11:56:30;;;;;;;5.88;1.13;;;9.50;99.90;;;;;;5114654;27;20046;-87
2022/04/08 11:59:04;;;;;;;4.80;1.10;;;9.90;99.90;;;;;;5097439;27;20039;-86
2022/04/08 12:01:33;;;;;;;3.38;1.23;;;10.10;99.90;;;;;;5114634;27;20621;-86
2022/04/08 12:04:04;;;;;;;4.13;1.10;;;10.20;99.90;;;;;;5097244;27;20043;-87
2022/04/08 12:06:43;;;;;;;3.75;1.00;;;10.30;99.90;;;;;;5098094;28;20046;-87
2022/04/08 12:09:13;;;;;;;5.32;1.10;;;10.50;99.90;;;;;;5114350;27;20043;-86
2022/04/08 12:11:42;;;;;;;2.80;0.90;;;10.40;99.90;;;;;;5097388;27;20084;-86
2022/04/08 12:14:09;;;;;;;2.78;0.80;;;10.50;99.90;;;;;;5113836;27;20039;-86
2022/04/08 12:16:36;;;;;;;5.18;0.80;;;10.30;99.90;;;;;;5114298;27;20077;-86
2022/04/08 12:19:02;;;;;;;4.53;0.95;;;10.00;99.90;;;;;;5114025;27;20042;-86
2022/04/08 12:21:30;;;;;;;4.93;0.82;;;9.60;99.90;;;;;;5114175;27;20038;-85
2022/04/08 12:23:58;;;;;;;5.53;0.80;;;9.40;99.90;;;;;;5096932;27;20076;-85
2022/04/08 12:26:42;;;;;;;5.90;1.25;;;9.30;99.90;;;;;;5114032;28;20043;-84
2022/04/08 12:29:10;;;;;;;4.57;0.70;;;9.30;99.90;;;;;;5114233;27;20039;-85
2022/04/08 12:31:47;;;;;;;4.53;0.80;;;9.30;99.90;;;;;;5113573;28;20168;-86
2022/04/08 12:34:14;;;;;;;5.20;1.00;;;9.20;99.90;;;;;;5096774;28;20121;-86
2022/04/08 12:36:41;;;;;;;5.28;1.30;;;8.90;99.90;;;;;;5096980;28;20058;-86
2022/04/08 12:39:07;;;;;;;3.95;1.00;;;8.70;99.90;;;;;;5096702;28;20114;-85
2022/04/08 12:41:33;;;;;;;4.53;1.00;;;8.40;99.90;;;;;;5114452;28;20074;-85
2022/04/08 12:43:59;;;;;;;6.72;1.50;;;8.30;99.90;;;;;;5118960;27;20031;-86
2022/04/08 12:46:24;;;;;;;7.18;1.10;;;8.20;99.90;;;;;;5124632;27;20037;-85
2022/04/08 12:48:50;;;;;;;5.35;1.00;;;8.50;99.90;;;;;;5102023;28;20035;-85
2022/04/08 12:51:16;;;;;;;5.32;1.02;;;8.80;99.90;;;;;;5104905;27;20074;-85
2022/04/08 12:53:41;;;;;;;4.70;1.00;;;9.00;99.90;;;;;;5105129;27;20042;-86
2022/04/08 12:56:07;;;;;;;4.97;1.10;;;9.10;99.90;;;;;;5126460;27;20110;-85